Time;durP1;ratioP1;P1;durP2;ratioP2;P2;SDS_P1;SDS_P2;PMS_P1;PMS_P2;Temp;Humidity;BMP_temperature;BMP_pressure;BME280_temperature;BME280_humidity;BME280_pressure;Samples;Min_cycle;Max_cycle;Signal;HPM_P1;HPM_P2
2021/03/31 00:00:12;;;;;;;282.00;194.93;;;23.20;99.90;;;;;;5099822;28;20926;-50
2021/03/31 00:02:39;;;;;;;274.53;201.10;;;23.20;99.90;;;;;;5098063;28;20477;-54
2021/03/31 00:05:06;;;;;;;266.47;195.10;;;23.20;99.90;;;;;;5096249;28;20794;-54
2021/03/31 00:07:33;;;;;;;268.30;191.60;;;23.20;99.90;;;;;;5096350;28;20923;-52
2021/03/31 00:09:59;;;;;;;262.90;192.00;;;23.20;99.90;;;;;;5098358;28;20470;-53
2021/03/31 00:12:26;;;;;;;275.50;194.97;;;23.20;99.90;;;;;;5098443;28;20489;-53
2021/03/31 00:14:52;;;;;;;266.93;188.53;;;23.20;99.90;;;;;;5097828;28;20465;-51
2021/03/31 00:17:19;;;;;;;268.63;197.73;;;23.20;99.90;;;;;;5097913;28;20561;-52
2021/03/31 00:19:46;;;;;;;264.13;192.00;;;23.20;99.90;;;;;;5095301;28;20755;-53
2021/03/31 00:22:13;;;;;;;263.53;197.10;;;23.20;99.90;;;;;;5077698;28;20907;-54
2021/03/31 00:24:39;;;;;;;264.57;196.63;;;23.20;99.90;;;;;;5077549;28;20434;-51
2021/03/31 00:27:07;;;;;;;260.77;188.40;;;23.20;99.90;;;;;;5077003;28;20434;-51
2021/03/31 00:29:33;;;;;;;257.10;187.93;;;23.20;99.90;;;;;;5056287;28;20740;-50
2021/03/31 00:32:00;;;;;;;266.33;191.10;;;23.20;99.90;;;;;;5055403;28;20435;-51
2021/03/31 00:34:27;;;;;;;263.67;192.53;;;23.20;99.90;;;;;;5055514;28;20455;-52
2021/03/31 00:36:54;;;;;;;251.17;185.77;;;23.20;99.90;;;;;;5054703;28;20539;-48
2021/03/31 00:39:20;;;;;;;246.77;183.73;;;23.20;99.90;;;;;;5072546;28;20487;-49
2021/03/31 00:41:47;;;;;;;246.87;182.30;;;23.20;99.90;;;;;;5074864;28;20442;-49
2021/03/31 00:44:14;;;;;;;245.70;177.10;;;23.20;99.90;;;;;;5074202;28;20565;-49
2021/03/31 00:46:41;;;;;;;251.37;179.37;;;23.20;99.90;;;;;;5075386;28;20519;-51
2021/03/31 00:49:07;;;;;;;252.23;180.03;;;23.20;99.90;;;;;;5075299;28;20434;-53
2021/03/31 00:51:35;;;;;;;243.63;176.87;;;23.20;99.90;;;;;;5073869;28;20442;-50
2021/03/31 00:54:02;;;;;;;227.97;176.13;;;23.20;99.90;;;;;;5073575;28;20435;-51
2021/03/31 00:56:30;;;;;;;243.13;176.80;;;23.20;99.90;;;;;;5071661;28;20456;-49
2021/03/31 00:58:56;;;;;;;240.60;176.27;;;23.20;99.90;;;;;;5057246;28;20531;-49
2021/03/31 01:01:23;;;;;;;250.37;182.27;;;23.20;99.90;;;;;;5074359;28;20481;-49
2021/03/31 01:03:49;;;;;;;242.80;177.10;;;23.20;99.90;;;;;;5075011;28;20536;-50
2021/03/31 01:06:16;;;;;;;242.73;173.73;;;23.20;99.90;;;;;;5073853;28;20521;-49
2021/03/31 01:08:44;;;;;;;240.70;173.90;;;23.20;99.90;;;;;;5074163;28;20554;-49
2021/03/31 01:11:17;;;;;;;235.47;173.77;;;23.20;99.90;;;;;;5074631;28;20541;-49
2021/03/31 01:13:53;;;;;;;232.53;173.33;;;23.20;99.90;;;;;;5071646;28;20492;-49
2021/03/31 01:16:37;;;;;;;237.83;173.27;;;23.30;99.90;;;;;;5052941;28;20931;-48
2021/03/31 01:19:38;;;;;;;244.50;173.73;;;23.30;99.90;;;;;;5073732;28;20481;-49
2021/03/31 01:22:31;;;;;;;229.17;170.13;;;23.20;99.90;;;;;;5074159;28;20440;-48
2021/03/31 01:25:15;;;;;;;230.70;169.07;;;23.30;99.90;;;;;;5072713;28;20549;-48
2021/03/31 01:27:54;;;;;;;224.43;164.53;;;23.30;99.90;;;;;;5073955;28;20441;-50
2021/03/31 01:30:28;;;;;;;238.13;171.30;;;23.20;99.90;;;;;;5093613;28;20485;-50
2021/03/31 01:33:31;;;;;;;228.03;170.43;;;23.30;99.90;;;;;;5094638;28;20518;-50
2021/03/31 01:35:58;;;;;;;234.10;171.23;;;23.30;99.90;;;;;;5075876;28;20978;-52
2021/03/31 01:38:27;;;;;;;226.60;169.30;;;23.30;99.90;;;;;;5092387;28;20837;-52
2021/03/31 01:40:58;;;;;;;225.63;167.10;;;23.30;99.90;;;;;;5094624;28;20449;-49
2021/03/31 01:43:26;;;;;;;224.80;167.53;;;23.30;99.90;;;;;;5093787;28;20511;-48
2021/03/31 01:45:55;;;;;;;222.47;165.50;;;23.30;99.90;;;;;;5094148;28;20464;-48
2021/03/31 01:48:27;;;;;;;221.67;159.57;;;23.30;99.90;;;;;;5093975;28;20483;-51
2021/03/31 01:50:58;;;;;;;222.00;164.30;;;23.30;99.90;;;;;;5091219;28;20884;-50
2021/03/31 01:53:26;;;;;;;217.00;161.90;;;23.30;99.90;;;;;;5094843;28;20438;-51
2021/03/31 01:55:54;;;;;;;221.57;161.20;;;23.30;99.90;;;;;;5093947;28;20454;-49
2021/03/31 01:58:22;;;;;;;229.03;163.67;;;23.30;99.90;;;;;;5093260;28;20484;-49
2021/03/31 02:00:53;;;;;;;219.23;162.80;;;23.30;99.90;;;;;;5094640;28;20434;-51
2021/03/31 02:03:23;;;;;;;216.30;163.33;;;23.30;99.90;;;;;;5092853;28;20435;-48
2021/03/31 02:05:50;;;;;;;221.07;160.27;;;23.30;99.90;;;;;;5093606;28;20481;-49
2021/03/31 02:08:19;;;;;;;217.43;161.83;;;23.30;99.90;;;;;;5094025;28;20794;-53
2021/03/31 02:10:50;;;;;;;215.60;161.30;;;23.30;99.90;;;;;;5093758;28;20434;-48
2021/03/31 02:13:18;;;;;;;209.43;158.10;;;23.30;99.90;;;;;;5093382;28;20497;-49
2021/03/31 02:15:46;;;;;;;210.67;156.30;;;23.30;99.90;;;;;;5093321;28;20481;-49
2021/03/31 02:18:14;;;;;;;217.60;160.33;;;23.30;99.90;;;;;;5092075;28;20562;-50
2021/03/31 02:20:41;;;;;;;215.73;156.83;;;23.30;99.90;;;;;;5093494;28;20522;-50
2021/03/31 02:23:08;;;;;;;200.13;153.63;;;23.30;99.90;;;;;;5094668;28;20846;-49
2021/03/31 02:25:35;;;;;;;213.87;160.73;;;23.30;99.90;;;;;;5090761;28;20475;-48
2021/03/31 02:28:04;;;;;;;210.93;156.40;;;23.30;99.90;;;;;;5091599;28;20444;-49
2021/03/31 02:30:31;;;;;;;213.03;161.50;;;23.30;99.90;;;;;;5092144;28;20444;-49
2021/03/31 02:33:00;;;;;;;206.83;156.67;;;23.40;99.90;;;;;;5055488;28;20834;-49
2021/03/31 02:35:30;;;;;;;203.43;154.20;;;23.40;99.90;;;;;;5089878;28;20732;-48
2021/03/31 02:37:59;;;;;;;209.60;155.17;;;23.40;99.90;;;;;;5089569;28;20484;-49
2021/03/31 02:40:27;;;;;;;205.30;157.20;;;23.30;99.90;;;;;;5088714;28;20446;-48
2021/03/31 02:42:55;;;;;;;195.37;153.13;;;23.40;99.90;;;;;;5088953;28;20470;-48
2021/03/31 02:45:25;;;;;;;199.50;153.80;;;23.40;99.90;;;;;;5072982;28;20434;-48
2021/03/31 02:47:53;;;;;;;206.03;153.97;;;23.30;99.90;;;;;;5089685;28;20433;-49
2021/03/31 02:50:22;;;;;;;189.73;149.40;;;23.30;99.90;;;;;;5088650;28;20509;-49
2021/03/31 02:52:50;;;;;;;196.70;149.33;;;23.40;99.90;;;;;;5090184;28;20456;-48
2021/03/31 02:55:17;;;;;;;208.40;152.90;;;23.40;99.90;;;;;;5089448;28;20454;-49
2021/03/31 02:57:45;;;;;;;197.57;149.57;;;23.40;99.90;;;;;;5091564;28;20500;-51
2021/03/31 03:00:13;;;;;;;187.80;148.13;;;23.40;99.90;;;;;;5091955;28;20449;-51
2021/03/31 03:02:43;;;;;;;199.50;148.87;;;23.40;99.90;;;;;;5091162;28;20445;-49
2021/03/31 03:05:11;;;;;;;184.33;145.30;;;23.40;99.90;;;;;;5090479;28;20826;-50
2021/03/31 03:07:38;;;;;;;196.13;147.40;;;23.40;99.90;;;;;;5092374;28;20886;-49
2021/03/31 03:10:09;;;;;;;193.63;148.27;;;23.40;99.90;;;;;;5091552;28;20490;-49
2021/03/31 03:12:41;;;;;;;191.03;145.50;;;23.40;99.90;;;;;;5091837;28;20449;-49
2021/03/31 03:15:11;;;;;;;196.67;144.67;;;23.40;99.90;;;;;;5092443;28;21255;-50
2021/03/31 03:17:38;;;;;;;183.33;146.23;;;23.40;99.80;;;;;;5091258;28;20529;-50
2021/03/31 03:20:08;;;;;;;179.17;145.03;;;23.40;99.80;;;;;;5091642;28;20466;-49
2021/03/31 03:22:35;;;;;;;182.33;144.00;;;23.40;99.80;;;;;;5093274;28;20444;-48
2021/03/31 03:25:03;;;;;;;182.73;143.77;;;23.30;99.70;;;;;;5092386;28;20442;-49
2021/03/31 03:27:30;;;;;;;189.43;146.10;;;23.40;99.70;;;;;;5091383;28;20525;-49
2021/03/31 03:29:57;;;;;;;182.50;144.10;;;23.40;99.70;;;;;;5090599;28;20502;-51
2021/03/31 03:32:24;;;;;;;171.23;140.43;;;23.40;99.70;;;;;;5091136;28;20532;-49
2021/03/31 03:34:54;;;;;;;174.37;136.73;;;23.40;99.70;;;;;;5090747;28;20426;-51
2021/03/31 03:37:22;;;;;;;182.47;141.60;;;23.40;99.70;;;;;;5091208;28;20466;-49
2021/03/31 03:39:48;;;;;;;177.20;141.40;;;23.40;99.70;;;;;;5090549;28;20556;-48
2021/03/31 03:42:15;;;;;;;172.63;138.27;;;23.40;99.70;;;;;;5092880;28;20478;-49
2021/03/31 03:44:42;;;;;;;174.03;140.27;;;23.40;99.70;;;;;;5092095;28;20481;-49
2021/03/31 03:47:09;;;;;;;174.47;141.03;;;23.40;99.60;;;;;;5092706;28;20453;-49
2021/03/31 03:49:37;;;;;;;172.63;141.03;;;23.40;99.60;;;;;;5090234;28;20538;-50
2021/03/31 03:52:05;;;;;;;192.03;142.17;;;23.50;99.60;;;;;;5072043;28;20446;-51
2021/03/31 03:54:33;;;;;;;179.07;136.57;;;23.50;99.60;;;;;;5074260;28;20452;-49
2021/03/31 03:56:59;;;;;;;177.70;141.40;;;23.50;99.60;;;;;;5075279;28;20529;-50
2021/03/31 03:59:28;;;;;;;171.50;137.40;;;23.50;99.60;;;;;;5075464;28;20501;-48
2021/03/31 04:01:56;;;;;;;171.43;140.00;;;23.50;99.50;;;;;;5075080;28;20473;-51
2021/03/31 04:04:23;;;;;;;180.00;141.60;;;23.50;99.50;;;;;;5072343;28;20441;-49
2021/03/31 04:06:50;;;;;;;178.80;137.73;;;23.50;99.50;;;;;;5072744;28;21015;-49
2021/03/31 04:09:16;;;;;;;168.23;134.70;;;23.50;99.40;;;;;;5073408;28;20435;-50
2021/03/31 04:11:45;;;;;;;166.17;136.47;;;23.50;99.40;;;;;;5074489;28;20429;-49
2021/03/31 04:14:13;;;;;;;168.87;137.67;;;23.50;99.70;;;;;;5091220;28;20504;-52
2021/03/31 04:16:43;;;;;;;164.13;136.07;;;23.60;99.40;;;;;;5076107;28;20439;-51
2021/03/31 04:19:13;;;;;;;174.03;136.87;;;23.60;99.30;;;;;;5090764;28;20458;-49
2021/03/31 04:21:41;;;;;;;156.23;136.67;;;23.60;99.30;;;;;;5093940;28;20871;-49
2021/03/31 04:24:10;;;;;;;163.23;135.13;;;23.60;99.30;;;;;;5094828;28;20520;-50
2021/03/31 04:26:38;;;;;;;165.80;132.30;;;23.60;99.20;;;;;;5092236;28;20865;-49
2021/03/31 04:29:07;;;;;;;165.93;132.63;;;23.60;99.20;;;;;;5090467;28;20474;-50
2021/03/31 04:31:35;;;;;;;167.47;134.37;;;23.60;99.10;;;;;;5092201;28;20504;-51
2021/03/31 04:34:03;;;;;;;161.73;131.63;;;23.60;99.10;;;;;;5090366;28;20551;-50
2021/03/31 04:36:30;;;;;;;159.60;131.03;;;23.70;99.00;;;;;;5087269;28;20460;-50
2021/03/31 04:38:57;;;;;;;162.23;131.30;;;23.70;99.00;;;;;;5089602;28;20494;-50
2021/03/31 04:41:24;;;;;;;156.33;129.97;;;23.70;99.00;;;;;;5085155;28;20939;-50
2021/03/31 04:43:51;;;;;;;161.80;132.50;;;23.80;99.00;;;;;;5070892;28;20459;-50
2021/03/31 04:46:18;;;;;;;162.63;132.17;;;23.80;98.90;;;;;;5070611;28;20434;-49
2021/03/31 04:48:44;;;;;;;159.77;132.03;;;23.80;98.90;;;;;;5069581;28;20977;-51
2021/03/31 04:51:19;;;;;;;153.83;126.97;;;23.80;98.90;;;;;;5068548;28;21228;-49
2021/03/31 04:53:46;;;;;;;153.33;130.90;;;23.80;98.80;;;;;;5069080;28;20470;-49
2021/03/31 04:56:13;;;;;;;153.33;124.53;;;23.80;98.80;;;;;;5068518;28;20589;-49
2021/03/31 04:58:39;;;;;;;158.70;130.73;;;23.80;98.90;;;;;;5075693;28;20579;-49
2021/03/31 05:01:06;;;;;;;151.87;125.27;;;23.80;98.70;;;;;;5084683;28;20442;-49
2021/03/31 05:03:34;;;;;;;146.23;126.73;;;23.90;98.70;;;;;;5086375;28;20507;-48
2021/03/31 05:06:00;;;;;;;153.73;125.10;;;23.90;98.70;;;;;;5070834;28;20920;-49
2021/03/31 05:08:26;;;;;;;151.77;123.73;;;23.90;98.60;;;;;;5066207;28;20441;-49
2021/03/31 05:10:53;;;;;;;157.47;126.97;;;23.90;98.60;;;;;;5066008;28;20503;-51
2021/03/31 05:13:19;;;;;;;148.20;124.17;;;23.90;98.60;;;;;;5068134;28;20564;-48
2021/03/31 05:15:46;;;;;;;148.63;123.73;;;23.90;98.60;;;;;;5067708;28;20450;-50
2021/03/31 05:18:12;;;;;;;153.20;124.07;;;23.90;98.50;;;;;;5065103;28;20577;-49
2021/03/31 05:20:40;;;;;;;157.13;125.47;;;23.90;98.50;;;;;;5069305;28;20463;-52
2021/03/31 05:23:06;;;;;;;144.53;122.80;;;23.90;98.50;;;;;;5084715;28;20446;-50
2021/03/31 05:25:33;;;;;;;152.40;124.87;;;23.90;98.40;;;;;;5082208;28;20909;-49
2021/03/31 05:28:00;;;;;;;144.97;120.37;;;23.90;98.40;;;;;;5080512;28;20892;-49
2021/03/31 05:30:27;;;;;;;144.70;122.33;;;23.90;98.40;;;;;;5064451;28;20762;-50
2021/03/31 05:32:53;;;;;;;148.67;123.03;;;24.00;98.40;;;;;;5062774;28;21104;-52
2021/03/31 05:35:20;;;;;;;142.03;120.53;;;24.00;98.40;;;;;;5062372;28;21205;-50
2021/03/31 05:37:48;;;;;;;145.40;121.70;;;24.00;98.30;;;;;;5074058;28;20463;-50
2021/03/31 05:40:15;;;;;;;142.27;115.00;;;24.00;98.30;;;;;;5073053;28;20460;-48
2021/03/31 05:42:41;;;;;;;133.53;112.03;;;24.00;98.30;;;;;;5070289;28;20493;-49
2021/03/31 05:45:10;;;;;;;46.00;41.07;;;24.00;98.30;;;;;;5079225;28;20549;-35
2021/03/31 05:47:41;;;;;;;28.27;25.67;;;24.00;92.50;;;;;;5080515;28;20533;-35
2021/03/31 05:50:12;;;;;;;23.47;21.63;;;23.60;74.60;;;;;;5074978;28;20618;-36
2021/03/31 05:52:40;;;;;;;22.20;20.50;;;22.90;67.30;;;;;;5076738;28;20495;-34
2021/03/31 05:55:11;;;;;;;26.80;24.47;;;22.40;64.00;;;;;;5076395;28;20451;-35
2021/03/31 05:57:39;;;;;;;38.53;34.73;;;22.10;69.20;;;;;;5056145;28;20525;-34
2021/03/31 06:00:08;;;;;;;43.03;38.47;;;22.20;75.90;;;;;;5054918;28;20583;-35
2021/03/31 06:02:44;;;;;;;39.57;35.57;;;22.50;81.90;;;;;;5054156;28;20469;-35
2021/03/31 06:05:13;;;;;;;38.73;34.97;;;22.70;85.10;;;;;;5071321;28;20457;-35
2021/03/31 06:07:41;;;;;;;39.03;34.97;;;22.90;87.80;;;;;;5053427;28;20897;-35
2021/03/31 06:10:13;;;;;;;37.00;32.73;;;23.10;89.20;;;;;;5072736;28;20812;-35
2021/03/31 06:12:43;;;;;;;37.37;33.73;;;23.20;90.00;;;;;;5075493;28;21095;-35
2021/03/31 06:15:21;;;;;;;37.20;33.63;;;23.30;90.20;;;;;;5067486;28;20442;-35
2021/03/31 06:17:55;;;;;;;36.70;33.10;;;23.40;90.40;;;;;;5071285;28;20470;-34
2021/03/31 06:20:54;;;;;;;36.77;33.10;;;23.50;90.50;;;;;;5069920;28;20433;-34
2021/03/31 06:23:52;;;;;;;38.50;34.50;;;23.60;90.60;;;;;;5047987;28;20459;-34
2021/03/31 06:26:27;;;;;;;37.17;33.37;;;23.60;90.70;;;;;;5050239;28;20434;-34
2021/03/31 06:29:03;;;;;;;35.37;31.97;;;23.70;90.80;;;;;;5052324;28;20452;-34
2021/03/31 06:31:32;;;;;;;35.30;31.90;;;23.70;90.80;;;;;;5049518;28;21227;-34
2021/03/31 06:34:03;;;;;;;36.40;32.43;;;23.80;90.90;;;;;;5042296;28;20556;-34
2021/03/31 06:36:38;;;;;;;36.60;32.97;;;23.80;91.00;;;;;;5047384;28;20668;-34
2021/03/31 06:39:22;;;;;;;34.30;31.20;;;23.80;91.00;;;;;;5049163;28;20525;-34
2021/03/31 06:41:56;;;;;;;36.10;32.40;;;23.90;91.20;;;;;;5057754;28;20488;-34
2021/03/31 06:44:38;;;;;;;38.33;33.07;;;23.90;91.30;;;;;;5068596;28;20479;-35
2021/03/31 06:47:10;;;;;;;36.13;32.47;;;23.90;91.30;;;;;;5063582;28;20954;-35
2021/03/31 06:49:37;;;;;;;35.70;32.17;;;24.00;91.50;;;;;;5066899;28;20445;-34
2021/03/31 06:52:06;;;;;;;58.53;34.43;;;24.00;91.60;;;;;;5056040;28;20454;-34
2021/03/31 06:54:42;;;;;;;48.60;32.60;;;24.00;91.70;;;;;;5051107;28;20478;-34
2021/03/31 06:57:13;;;;;;;39.40;30.50;;;24.10;91.90;;;;;;5065454;28;21248;-34
2021/03/31 06:59:42;;;;;;;47.63;33.33;;;24.10;91.90;;;;;;5050276;28;20604;-33
2021/03/31 07:02:09;;;;;;;46.07;30.70;;;24.10;92.10;;;;;;5046589;28;20886;-34
2021/03/31 07:04:37;;;;;;;52.23;33.80;;;24.10;92.20;;;;;;5056781;28;20499;-34
2021/03/31 07:07:07;;;;;;;46.23;30.70;;;24.10;92.30;;;;;;5063479;28;20449;-33
2021/03/31 07:09:35;;;;;;;52.70;30.57;;;24.20;92.40;;;;;;5046300;28;20444;-33
2021/03/31 07:12:18;;;;;;;52.30;33.90;;;24.20;92.50;;;;;;5057559;28;20835;-34
2021/03/31 07:14:47;;;;;;;44.83;32.40;;;24.20;92.70;;;;;;5064926;28;20438;-33
2021/03/31 07:17:21;;;;;;;44.53;31.80;;;24.20;92.80;;;;;;5066616;28;20544;-33
2021/03/31 07:19:49;;;;;;;42.97;31.03;;;24.20;92.90;;;;;;5048615;28;20504;-34
2021/03/31 07:22:15;;;;;;;50.90;32.63;;;24.20;93.10;;;;;;5065857;28;20445;-33
2021/03/31 07:24:42;;;;;;;38.00;32.23;;;24.20;93.20;;;;;;5063423;28;20443;-34
2021/03/31 07:27:13;;;;;;;39.17;31.67;;;24.20;93.30;;;;;;5044731;28;20496;-33
2021/03/31 07:32:31;;;;;;;37.07;31.17;;;24.20;93.50;;;;;;5067325;28;20622;-33
2021/03/31 07:35:01;;;;;;;41.97;31.67;;;24.20;93.50;;;;;;5069859;28;20545;-33
2021/03/31 07:37:29;;;;;;;44.40;32.13;;;24.10;93.60;;;;;;5054360;28;20461;-33
2021/03/31 07:39:58;;;;;;;45.00;30.70;;;24.10;93.60;;;;;;5050076;28;20450;-33
2021/03/31 07:42:26;;;;;;;38.13;30.63;;;24.10;93.70;;;;;;5046321;28;20480;-34
2021/03/31 07:44:54;;;;;;;41.00;32.50;;;24.10;93.70;;;;;;5055352;28;20521;-34
2021/03/31 07:47:22;;;;;;;42.43;32.43;;;24.10;93.80;;;;;;5056812;28;20515;-33
2021/03/31 07:49:51;;;;;;;39.63;29.53;;;24.10;93.90;;;;;;5051782;28;20442;-33
2021/03/31 07:52:18;;;;;;;40.40;30.23;;;24.10;93.90;;;;;;5032755;28;20475;-33
2021/03/31 07:54:46;;;;;;;34.80;30.23;;;24.10;93.90;;;;;;5033774;28;20454;-44
2021/03/31 07:57:24;;;;;;;38.63;31.60;;;24.10;94.00;;;;;;5043528;28;21000;-44
2021/03/31 07:59:50;;;;;;;41.87;32.40;;;24.10;94.00;;;;;;5053674;28;21018;-44
2021/03/31 08:02:20;;;;;;;34.97;31.30;;;24.10;94.00;;;;;;5046852;28;20581;-44
2021/03/31 08:04:48;;;;;;;35.17;29.97;;;24.10;94.10;;;;;;5041552;28;20499;-42
2021/03/31 08:07:22;;;;;;;41.33;31.97;;;24.10;94.10;;;;;;5048941;28;20906;-42
2021/03/31 08:09:50;;;;;;;40.27;30.30;;;24.10;94.20;;;;;;5038036;28;20496;-42
2021/03/31 08:12:31;;;;;;;34.10;29.20;;;24.10;94.20;;;;;;5041082;28;20553;-42
2021/03/31 08:14:59;;;;;;;35.37;30.70;;;24.10;94.20;;;;;;5030453;28;20465;-42
2021/03/31 08:17:28;;;;;;;36.17;30.13;;;24.10;94.20;;;;;;5043713;28;20438;-42
2021/03/31 08:19:57;;;;;;;35.63;30.97;;;24.10;94.30;;;;;;5042897;28;20467;-42
2021/03/31 08:22:34;;;;;;;33.93;30.53;;;24.10;94.30;;;;;;5051026;28;20456;-41
2021/03/31 08:25:23;;;;;;;32.80;29.23;;;24.10;94.30;;;;;;5027144;28;21187;-42
2021/03/31 08:28:00;;;;;;;33.50;30.10;;;24.10;94.40;;;;;;5038300;28;20698;-42
2021/03/31 08:30:28;;;;;;;31.40;28.07;;;24.10;94.40;;;;;;5028708;28;20467;-42
2021/03/31 08:32:56;;;;;;;37.57;30.30;;;24.00;94.40;;;;;;5018552;28;20580;-42
2021/03/31 08:35:24;;;;;;;37.23;29.77;;;24.10;94.40;;;;;;5042449;28;20549;-42
2021/03/31 08:37:51;;;;;;;33.17;29.70;;;24.10;94.50;;;;;;5057607;28;20476;-41
2021/03/31 08:40:19;;;;;;;32.60;29.20;;;24.10;94.50;;;;;;5062998;28;20742;-42
2021/03/31 08:42:53;;;;;;;30.73;27.93;;;24.10;94.60;;;;;;5030886;28;20512;-42
2021/03/31 08:45:29;;;;;;;34.93;28.93;;;24.10;94.60;;;;;;5024135;28;21238;-42
2021/03/31 08:47:59;;;;;;;30.83;27.83;;;24.10;94.60;;;;;;5046507;28;21030;-42
2021/03/31 08:50:33;;;;;;;32.40;29.00;;;24.10;94.60;;;;;;5043501;28;20455;-42
2021/03/31 08:53:05;;;;;;;42.80;31.57;;;24.00;94.60;;;;;;5042492;28;20494;-42
2021/03/31 08:55:36;;;;;;;35.87;29.13;;;24.00;94.70;;;;;;5052750;28;20503;-40
2021/03/31 08:58:09;;;;;;;36.77;28.50;;;24.00;94.70;;;;;;5061888;28;21127;-42
2021/03/31 09:00:51;;;;;;;32.20;28.00;;;24.00;94.70;;;;;;5062981;28;20884;-42
2021/03/31 09:03:19;;;;;;;33.27;29.00;;;24.00;94.70;;;;;;5067320;28;20435;-42
2021/03/31 09:05:58;;;;;;;31.53;28.20;;;24.00;94.70;;;;;;5065957;28;20841;-42
2021/03/31 09:08:27;;;;;;;31.00;28.00;;;24.00;94.80;;;;;;5068289;28;20438;-42
2021/03/31 09:11:03;;;;;;;31.97;28.37;;;24.00;94.80;;;;;;5063579;28;20589;-42
2021/03/31 09:13:32;;;;;;;35.30;30.13;;;24.00;94.80;;;;;;5042938;28;20956;-42
2021/03/31 09:16:00;;;;;;;32.97;29.57;;;24.00;94.80;;;;;;5048250;28;20959;-42
2021/03/31 09:18:29;;;;;;;32.23;29.17;;;24.00;94.90;;;;;;5048682;28;20522;-42
2021/03/31 09:20:56;;;;;;;31.60;28.57;;;24.00;94.90;;;;;;5055187;28;20920;-41
2021/03/31 09:23:24;;;;;;;32.60;29.50;;;24.00;94.90;;;;;;5053241;28;20455;-41
2021/03/31 09:25:59;;;;;;;34.03;30.83;;;24.00;94.90;;;;;;5044508;28;20459;-42
2021/03/31 09:28:25;;;;;;;33.17;30.00;;;24.00;95.30;;;;;;5059457;28;20445;-42
2021/03/31 09:30:54;;;;;;;34.77;31.20;;;24.00;95.00;;;;;;5060076;28;20453;-42
2021/03/31 09:33:26;;;;;;;29.97;27.20;;;24.00;95.00;;;;;;5046685;28;20547;-42
2021/03/31 09:35:54;;;;;;;31.47;28.47;;;24.00;95.10;;;;;;5065412;28;20522;-41
2021/03/31 09:38:28;;;;;;;31.13;27.30;;;24.00;95.20;;;;;;5064284;28;20526;-41
2021/03/31 09:41:02;;;;;;;34.77;31.60;;;24.00;95.30;;;;;;5034160;28;20519;-42
2021/03/31 09:43:30;;;;;;;32.73;29.60;;;23.90;95.20;;;;;;5051133;28;20472;-41
2021/03/31 09:45:57;;;;;;;33.87;30.37;;;23.90;95.30;;;;;;5047292;28;20452;-42
2021/03/31 09:48:25;;;;;;;33.40;29.90;;;23.90;95.30;;;;;;5042254;28;20455;-42
2021/03/31 09:50:54;;;;;;;31.57;28.07;;;24.00;95.40;;;;;;5019214;28;20476;-41
2021/03/31 09:53:25;;;;;;;32.90;29.70;;;23.90;95.30;;;;;;5045044;28;20442;-41
2021/03/31 09:55:54;;;;;;;33.20;29.77;;;23.90;95.30;;;;;;5056508;28;20523;-41
2021/03/31 09:58:22;;;;;;;30.03;26.80;;;23.90;95.30;;;;;;5062659;28;20509;-41
2021/03/31 10:00:49;;;;;;;32.70;29.47;;;23.90;95.40;;;;;;5066219;28;20439;-42
2021/03/31 10:03:19;;;;;;;32.23;28.97;;;23.90;95.40;;;;;;5050170;28;20450;-41
2021/03/31 10:05:46;;;;;;;31.20;28.20;;;23.90;95.50;;;;;;5059781;28;20466;-42
2021/03/31 10:08:21;;;;;;;30.37;27.27;;;23.90;95.50;;;;;;5061437;28;20969;-42
2021/03/31 10:10:50;;;;;;;30.87;27.47;;;23.90;95.60;;;;;;5062206;28;20451;-41
2021/03/31 10:13:19;;;;;;;29.57;26.57;;;23.90;95.60;;;;;;5028339;28;20817;-41
2021/03/31 10:15:56;;;;;;;35.13;28.03;;;23.90;95.60;;;;;;5042556;28;20456;-42
2021/03/31 10:18:24;;;;;;;28.47;25.73;;;23.90;95.70;;;;;;5045430;28;21039;-41
2021/03/31 10:20:52;;;;;;;29.90;25.33;;;23.90;95.70;;;;;;5040951;28;20491;-38
2021/03/31 10:23:28;;;;;;;29.00;26.20;;;23.80;95.70;;;;;;5057819;28;20503;-39
2021/03/31 10:26:17;;;;;;;29.37;26.37;;;23.90;95.80;;;;;;5062843;28;21068;-39
2021/03/31 10:28:46;;;;;;;30.90;28.10;;;23.80;95.80;;;;;;5046815;28;20753;-38
2021/03/31 10:31:30;;;;;;;28.03;25.30;;;23.90;95.80;;;;;;5061794;28;21221;-38
2021/03/31 10:33:59;;;;;;;29.93;26.93;;;23.80;95.80;;;;;;5062586;28;20459;-38
2021/03/31 10:36:43;;;;;;;31.20;27.93;;;23.80;95.80;;;;;;5063506;28;20504;-38
2021/03/31 10:48:14;;;;;;;31.50;28.37;;;23.80;95.90;;;;;;5047599;28;20451;-38
2021/03/31 10:50:45;;;;;;;30.60;27.50;;;23.80;95.90;;;;;;5056786;28;20447;-39
2021/03/31 10:53:16;;;;;;;28.27;25.57;;;23.80;96.00;;;;;;5057047;28;20805;-38
2021/03/31 10:55:46;;;;;;;30.50;27.70;;;23.80;96.00;;;;;;5050898;28;20436;-38
2021/03/31 10:58:13;;;;;;;29.87;27.00;;;23.80;96.00;;;;;;5049196;28;20484;-39
2021/03/31 11:00:41;;;;;;;30.30;27.40;;;23.70;95.90;;;;;;5047647;28;20459;-38
2021/03/31 11:03:08;;;;;;;30.43;27.63;;;23.70;96.00;;;;;;5066487;28;20620;-38
2021/03/31 11:05:36;;;;;;;30.23;27.60;;;23.70;96.00;;;;;;5069459;28;20434;-39
2021/03/31 11:08:04;;;;;;;28.70;26.03;;;23.70;96.00;;;;;;5058133;28;20530;-38
2021/03/31 11:10:31;;;;;;;29.53;26.90;;;23.70;96.00;;;;;;5032974;28;20459;-39
2021/03/31 11:12:59;;;;;;;30.80;27.77;;;23.70;96.10;;;;;;5054378;28;20459;-39
2021/03/31 11:15:27;;;;;;;28.63;25.73;;;23.70;96.10;;;;;;5050305;28;20435;-39
2021/03/31 11:18:04;;;;;;;29.60;26.60;;;23.70;96.10;;;;;;5061678;28;21289;-39
2021/03/31 11:26:04;;;;;;;27.13;24.67;;;23.70;96.30;;;;;;5071696;28;20434;-39
2021/03/31 11:28:36;;;;;;;28.47;25.77;;;23.70;96.30;;;;;;5072224;28;20457;-39
2021/03/31 11:31:04;;;;;;;28.53;25.80;;;23.70;96.30;;;;;;5053644;28;20464;-39
2021/03/31 11:33:31;;;;;;;27.57;24.63;;;23.70;96.30;;;;;;5043947;28;20581;-39
2021/03/31 11:35:58;;;;;;;27.23;24.60;;;23.70;96.40;;;;;;5050724;28;20463;-38
2021/03/31 11:38:25;;;;;;;29.40;26.67;;;23.70;96.40;;;;;;5047861;28;20466;-36
2021/03/31 11:40:53;;;;;;;28.30;25.60;;;23.70;96.40;;;;;;5064585;28;20733;-39
2021/03/31 11:43:20;;;;;;;28.00;25.37;;;23.70;96.40;;;;;;5069624;28;20492;-38
2021/03/31 11:45:49;;;;;;;27.33;24.87;;;23.70;96.50;;;;;;5069509;28;20435;-38
2021/03/31 11:48:16;;;;;;;27.50;24.90;;;23.70;96.40;;;;;;5070637;28;20503;-38
2021/03/31 11:50:44;;;;;;;27.10;24.57;;;23.70;96.40;;;;;;5054655;28;20477;-38
2021/03/31 11:53:13;;;;;;;27.47;24.83;;;23.80;96.50;;;;;;5047477;28;20577;-39
2021/03/31 11:55:39;;;;;;;27.10;24.30;;;23.80;96.50;;;;;;5049358;28;20458;-39
2021/03/31 11:58:06;;;;;;;27.33;24.87;;;23.80;96.50;;;;;;5050256;28;20440;-38
2021/03/31 12:00:35;;;;;;;27.67;24.70;;;23.70;96.50;;;;;;5052373;28;21518;-38
2021/03/31 12:03:03;;;;;;;25.17;22.70;;;23.80;96.60;;;;;;5050230;28;20993;-39
2021/03/31 12:05:30;;;;;;;25.17;22.97;;;23.80;96.60;;;;;;5055848;28;20481;-39
2021/03/31 12:07:56;;;;;;;27.47;24.80;;;23.70;96.60;;;;;;5067641;28;20664;-39
2021/03/31 12:10:23;;;;;;;26.63;24.03;;;23.80;96.70;;;;;;5046588;28;20482;-38
2021/03/31 12:12:50;;;;;;;26.37;23.87;;;23.70;96.60;;;;;;5056561;28;20458;-39
2021/03/31 12:15:16;;;;;;;26.47;23.67;;;23.70;96.70;;;;;;5050883;28;20534;-39
2021/03/31 12:17:43;;;;;;;26.47;23.97;;;23.80;96.70;;;;;;5068519;28;20461;-39
2021/03/31 12:20:13;;;;;;;26.33;23.73;;;23.70;96.70;;;;;;5069606;28;20517;-39
2021/03/31 12:22:41;;;;;;;26.17;23.67;;;23.70;96.70;;;;;;5053024;28;21168;-39
2021/03/31 12:25:09;;;;;;;28.50;24.33;;;23.70;96.70;;;;;;5067280;28;20446;-39
2021/03/31 12:27:37;;;;;;;26.20;23.63;;;23.70;96.80;;;;;;5067666;28;20582;-39
2021/03/31 12:30:08;;;;;;;27.47;24.33;;;23.70;96.80;;;;;;5044653;28;20548;-39
2021/03/31 12:32:35;;;;;;;26.13;23.77;;;23.70;96.80;;;;;;5045862;28;20456;-39
2021/03/31 12:35:03;;;;;;;25.93;23.27;;;23.70;96.80;;;;;;5051426;28;20458;-39
2021/03/31 12:37:30;;;;;;;26.37;24.10;;;23.70;96.80;;;;;;5051861;28;20496;-39
2021/03/31 12:40:01;;;;;;;26.50;24.30;;;23.80;96.90;;;;;;5070551;28;20579;-39
2021/03/31 12:42:28;;;;;;;27.67;25.00;;;23.70;96.80;;;;;;5048501;28;20459;-39
2021/03/31 12:44:55;;;;;;;27.00;24.60;;;23.70;96.90;;;;;;5049461;28;20469;-39
2021/03/31 12:47:22;;;;;;;24.20;22.10;;;23.70;96.90;;;;;;5046956;28;20584;-38